Time;durP1;ratioP1;P1;durP2;ratioP2;P2;SDS_P1;SDS_P2;PMS_P1;PMS_P2;Temp;Humidity;BMP_temperature;BMP_pressure;BME280_temperature;BME280_humidity;BME280_pressure;Samples;Min_cycle;Max_cycle;Signal;HPM_P1;HPM_P2
2021/08/06 00:01:40;;;;;;;13.93;7.90;;;16.10;97.30;;;;;;5081406;28;20223;-81
2021/08/06 00:04:05;;;;;;;15.20;8.63;;;16.10;97.30;;;;;;5062967;28;20281;-82
2021/08/06 00:06:32;;;;;;;12.50;7.93;;;16.10;97.30;;;;;;5062312;28;20488;-81
2021/08/06 00:08:58;;;;;;;13.00;7.47;;;16.00;97.30;;;;;;5062641;28;20715;-81
2021/08/06 00:11:27;;;;;;;15.80;9.27;;;16.00;97.30;;;;;;5062930;28;20417;-81
2021/08/06 00:13:53;;;;;;;14.93;8.13;;;16.00;97.30;;;;;;5080900;28;20185;-81
2021/08/06 00:16:19;;;;;;;17.43;8.83;;;16.00;97.30;;;;;;5079902;28;20470;-82
2021/08/06 00:18:44;;;;;;;18.93;8.70;;;16.00;97.30;;;;;;5062860;28;20187;-81
2021/08/06 00:21:09;;;;;;;17.43;8.50;;;16.00;97.30;;;;;;5064069;28;20206;-82
2021/08/06 00:23:35;;;;;;;14.83;8.50;;;15.90;97.30;;;;;;5062510;28;20273;-81
2021/08/06 00:26:00;;;;;;;18.20;8.13;;;15.90;97.30;;;;;;5063618;28;20597;-81
2021/08/06 00:28:26;;;;;;;17.33;8.70;;;15.90;97.30;;;;;;5063062;28;20243;-81
2021/08/06 00:30:51;;;;;;;15.43;7.83;;;15.90;97.30;;;;;;5095605;28;20222;-82
2021/08/06 00:33:17;;;;;;;13.20;8.23;;;15.90;97.30;;;;;;5081995;28;20182;-82
2021/08/06 00:35:42;;;;;;;15.47;8.73;;;15.90;97.30;;;;;;5081378;28;20467;-82
2021/08/06 00:38:08;;;;;;;17.10;8.20;;;15.90;97.30;;;;;;5082293;28;20178;-82
2021/08/06 00:40:33;;;;;;;12.37;7.87;;;15.80;97.30;;;;;;5082020;28;20201;-81
2021/08/06 00:42:59;;;;;;;14.30;7.97;;;15.80;97.30;;;;;;5081610;28;20463;-81
2021/08/06 00:45:24;;;;;;;15.07;8.17;;;15.80;97.30;;;;;;5081104;28;20184;-82
2021/08/06 00:47:50;;;;;;;13.80;8.40;;;15.80;97.30;;;;;;5098932;28;20174;-82
2021/08/06 00:50:16;;;;;;;15.47;7.57;;;15.70;97.30;;;;;;5081834;28;20580;-82
2021/08/06 00:52:43;;;;;;;17.83;8.83;;;15.70;97.30;;;;;;5081198;28;20181;-81
2021/08/06 00:55:10;;;;;;;19.53;8.47;;;15.70;97.30;;;;;;5099582;28;20425;-82
2021/08/06 00:57:35;;;;;;;15.23;7.97;;;15.70;97.30;;;;;;5082403;28;20424;-83
2021/08/06 01:00:00;;;;;;;14.17;9.10;;;15.60;97.30;;;;;;5080516;28;20454;-83
2021/08/06 01:02:38;;;;;;;11.07;7.60;;;15.60;97.30;;;;;;5081053;28;20252;-81
2021/08/06 01:05:14;;;;;;;16.77;9.20;;;15.50;97.30;;;;;;5081896;28;20170;-82
2021/08/06 01:07:58;;;;;;;12.87;8.27;;;15.50;97.30;;;;;;5081756;28;20469;-81
2021/08/06 01:10:32;;;;;;;15.40;9.30;;;15.50;97.30;;;;;;5082760;28;20468;-82
2021/08/06 01:13:00;;;;;;;14.80;9.53;;;15.50;97.30;;;;;;5098891;28;20519;-81
2021/08/06 01:15:26;;;;;;;17.63;9.67;;;15.50;97.30;;;;;;5100671;28;20513;-81
2021/08/06 01:17:54;;;;;;;22.20;10.23;;;15.40;97.30;;;;;;5082464;28;20507;-82
2021/08/06 01:20:24;;;;;;;18.57;9.63;;;15.50;97.30;;;;;;5080601;28;20460;-81
2021/08/06 01:22:52;;;;;;;19.40;9.83;;;15.50;97.30;;;;;;5081947;28;20412;-80
2021/08/06 01:25:28;;;;;;;17.40;9.97;;;15.50;97.30;;;;;;5083036;28;20409;-80
2021/08/06 01:27:54;;;;;;;17.70;8.83;;;15.50;97.30;;;;;;5082626;28;20441;-81
2021/08/06 01:30:19;;;;;;;27.10;10.10;;;15.50;97.30;;;;;;5089929;28;20464;-82
2021/08/06 01:32:45;;;;;;;20.37;9.07;;;15.50;97.30;;;;;;5062499;28;20594;-82
2021/08/06 01:35:10;;;;;;;23.33;10.33;;;15.50;97.30;;;;;;5063296;28;20171;-82
2021/08/06 01:37:44;;;;;;;30.03;12.40;;;15.50;97.30;;;;;;5067043;28;20234;-81
2021/08/06 01:40:09;;;;;;;29.27;12.77;;;15.50;97.30;;;;;;5066252;28;20210;-80
2021/08/06 01:43:08;;;;;;;19.57;11.60;;;15.50;97.30;;;;;;5066332;28;20479;-81
2021/08/06 01:45:37;;;;;;;24.03;10.77;;;15.50;97.30;;;;;;5066418;28;20685;-81
2021/08/06 01:48:09;;;;;;;27.27;12.07;;;15.50;97.30;;;;;;5065337;28;20421;-80
2021/08/06 01:50:38;;;;;;;22.50;11.63;;;15.50;97.30;;;;;;5083405;28;20437;-81
2021/08/06 01:53:08;;;;;;;21.30;11.50;;;15.50;97.30;;;;;;5065937;28;20443;-81
2021/08/06 01:55:40;;;;;;;23.80;12.13;;;15.50;97.30;;;;;;5083527;28;20489;-80
2021/08/06 01:58:07;;;;;;;29.17;12.40;;;15.60;97.30;;;;;;5083589;28;20911;-79
2021/08/06 02:00:33;;;;;;;24.30;10.03;;;15.50;97.30;;;;;;5083233;28;20456;-81
2021/08/06 02:02:59;;;;;;;24.33;11.47;;;15.50;97.30;;;;;;5084183;28;20405;-80
2021/08/06 02:05:25;;;;;;;19.40;10.80;;;15.50;97.30;;;;;;5067468;28;20261;-81
2021/08/06 02:07:50;;;;;;;20.90;11.33;;;15.50;97.30;;;;;;5066625;28;20167;-81
2021/08/06 02:10:16;;;;;;;34.13;12.27;;;15.50;97.30;;;;;;5066849;28;20441;-82
2021/08/06 02:12:43;;;;;;;26.70;11.43;;;15.40;97.30;;;;;;5082296;28;20190;-81
2021/08/06 02:15:10;;;;;;;25.80;11.27;;;15.40;97.30;;;;;;5065998;28;20179;-82
2021/08/06 02:17:36;;;;;;;20.80;11.00;;;15.40;97.30;;;;;;5065963;28;20456;-82
2021/08/06 02:20:04;;;;;;;20.93;11.07;;;15.30;97.30;;;;;;5065756;28;20515;-81
2021/08/06 02:22:32;;;;;;;21.93;11.53;;;15.30;97.30;;;;;;5064602;28;20413;-82
2021/08/06 02:24:58;;;;;;;20.40;11.43;;;15.30;97.30;;;;;;5082382;28;20417;-82
2021/08/06 02:27:25;;;;;;;20.10;10.90;;;15.30;97.30;;;;;;5065288;28;20421;-81
2021/08/06 02:29:56;;;;;;;21.53;10.43;;;15.30;97.30;;;;;;5064976;28;20465;-82
2021/08/06 02:32:23;;;;;;;20.77;11.63;;;15.30;97.30;;;;;;5065627;28;20452;-82
2021/08/06 02:34:50;;;;;;;22.13;10.87;;;15.30;97.30;;;;;;5064659;28;20405;-82
2021/08/06 02:37:16;;;;;;;20.53;10.80;;;15.30;97.30;;;;;;5062193;28;20421;-82
2021/08/06 02:39:41;;;;;;;17.37;10.40;;;15.30;97.30;;;;;;5065507;28;20490;-82
2021/08/06 02:42:07;;;;;;;19.57;10.90;;;15.30;97.30;;;;;;5065399;28;20262;-80
2021/08/06 02:44:40;;;;;;;21.83;11.73;;;15.20;97.30;;;;;;5065447;28;20179;-82
2021/08/06 02:47:06;;;;;;;25.77;9.97;;;15.20;97.30;;;;;;5083515;28;20175;-82
2021/08/06 02:49:33;;;;;;;19.13;10.07;;;15.20;97.30;;;;;;5065789;28;20467;-83
2021/08/06 02:52:01;;;;;;;18.00;10.27;;;15.20;97.30;;;;;;5062032;28;20430;-82
2021/08/06 02:54:26;;;;;;;17.17;10.20;;;15.20;97.30;;;;;;5064868;28;20508;-82
2021/08/06 02:56:52;;;;;;;19.93;11.00;;;15.10;97.30;;;;;;5064602;28;20469;-82
2021/08/06 02:59:18;;;;;;;19.07;11.47;;;15.10;97.30;;;;;;5064157;28;20234;-83
2021/08/06 03:01:43;;;;;;;17.17;10.23;;;15.10;97.30;;;;;;5064380;28;20743;-82
2021/08/06 03:04:09;;;;;;;21.10;9.87;;;15.10;97.30;;;;;;5081267;28;20645;-82
2021/08/06 03:06:34;;;;;;;20.93;9.77;;;15.10;97.30;;;;;;5064227;28;20174;-82
2021/08/06 03:09:01;;;;;;;16.50;9.43;;;15.10;97.30;;;;;;5064388;28;20225;-82
2021/08/06 03:11:26;;;;;;;15.80;9.47;;;15.10;97.30;;;;;;5083113;28;20187;-82
2021/08/06 03:13:52;;;;;;;13.33;8.80;;;15.00;97.30;;;;;;5065069;28;20406;-82
2021/08/06 03:16:17;;;;;;;26.47;11.67;;;15.00;97.30;;;;;;5083189;28;20238;-83
2021/08/06 03:18:43;;;;;;;22.30;10.87;;;15.00;97.30;;;;;;5079138;28;20184;-83
2021/08/06 03:21:08;;;;;;;22.30;10.20;;;15.00;97.30;;;;;;5060986;28;20207;-82
2021/08/06 03:23:34;;;;;;;22.00;9.87;;;15.00;97.30;;;;;;5065319;28;20175;-82
2021/08/06 03:25:59;;;;;;;25.63;10.20;;;15.00;97.30;;;;;;5060714;28;20210;-82
2021/08/06 03:28:25;;;;;;;19.50;10.87;;;15.00;97.30;;;;;;5053305;28;20179;-81
2021/08/06 03:30:50;;;;;;;22.30;10.00;;;15.00;97.30;;;;;;5054154;28;20234;-82
2021/08/06 03:33:16;;;;;;;30.30;10.27;;;15.00;97.30;;;;;;5072488;28;20687;-81
2021/08/06 03:35:42;;;;;;;35.63;11.20;;;15.00;97.30;;;;;;5051755;28;20195;-82
2021/08/06 03:38:20;;;;;;;24.17;9.67;;;15.00;97.30;;;;;;5060362;28;20485;-81
2021/08/06 03:40:47;;;;;;;19.70;10.40;;;15.00;97.30;;;;;;5052450;28;20476;-82
2021/08/06 03:43:13;;;;;;;25.23;9.50;;;15.00;97.30;;;;;;5050569;28;20460;-83
2021/08/06 03:45:40;;;;;;;19.43;10.50;;;15.00;97.30;;;;;;5069269;28;20438;-83
2021/08/06 03:48:06;;;;;;;19.83;9.50;;;15.00;97.30;;;;;;5051968;28;20421;-83
2021/08/06 03:50:32;;;;;;;20.87;9.60;;;15.00;97.30;;;;;;5053746;28;20784;-83
2021/08/06 03:52:57;;;;;;;18.20;10.87;;;15.00;97.30;;;;;;5051560;28;20199;-81
2021/08/06 03:55:23;;;;;;;20.60;10.00;;;14.90;97.30;;;;;;5072240;28;20421;-83
2021/08/06 03:57:53;;;;;;;18.53;10.40;;;14.90;97.30;;;;;;5052451;28;20857;-82
2021/08/06 04:00:20;;;;;;;24.80;10.60;;;14.90;97.30;;;;;;5047912;28;20196;-81
2021/08/06 04:02:45;;;;;;;19.73;9.97;;;14.90;97.30;;;;;;5055250;28;20469;-82
2021/08/06 04:05:11;;;;;;;30.87;10.07;;;14.80;97.30;;;;;;5058360;28;20410;-81
2021/08/06 04:07:42;;;;;;;24.10;9.17;;;14.80;97.30;;;;;;5052047;28;20604;-81
2021/08/06 04:10:08;;;;;;;19.40;10.27;;;14.80;97.30;;;;;;5054955;28;20452;-81
2021/08/06 04:12:33;;;;;;;26.63;10.17;;;14.80;97.30;;;;;;5053216;28;20444;-82
2021/08/06 04:14:59;;;;;;;19.00;9.90;;;14.70;97.30;;;;;;5052177;28;20969;-81
2021/08/06 04:17:24;;;;;;;43.97;10.53;;;14.70;97.30;;;;;;5051102;28;20183;-81
2021/08/06 04:19:50;;;;;;;21.60;12.27;;;14.70;97.30;;;;;;5049940;28;20199;-81
2021/08/06 04:22:15;;;;;;;40.80;11.67;;;14.60;97.30;;;;;;5051004;28;20195;-82
2021/08/06 04:24:41;;;;;;;23.43;10.80;;;14.60;97.30;;;;;;5052204;28;20245;-81
2021/08/06 04:27:06;;;;;;;32.13;12.60;;;14.70;97.30;;;;;;5051400;28;20179;-82
2021/08/06 04:29:31;;;;;;;31.93;11.00;;;14.70;97.30;;;;;;5056085;28;20294;-82
2021/08/06 04:31:57;;;;;;;29.97;11.43;;;14.70;97.30;;;;;;5070498;28;20221;-81
2021/08/06 04:34:22;;;;;;;21.50;9.73;;;14.60;97.30;;;;;;5069804;28;20170;-82
2021/08/06 04:36:52;;;;;;;21.57;11.00;;;14.70;97.30;;;;;;5091559;28;20178;-81
2021/08/06 04:39:18;;;;;;;25.87;11.40;;;14.70;97.30;;;;;;5072247;28;20719;-82
2021/08/06 04:41:43;;;;;;;23.47;9.73;;;14.80;97.30;;;;;;5090350;28;20461;-81
2021/08/06 04:44:09;;;;;;;26.47;11.47;;;14.70;97.30;;;;;;5091232;28;20220;-81
2021/08/06 04:46:34;;;;;;;20.57;11.07;;;14.80;97.30;;;;;;5072324;28;20166;-81
2021/08/06 04:48:59;;;;;;;20.30;10.67;;;14.80;97.30;;;;;;5096893;22;20175;-86
2021/08/06 04:51:25;;;;;;;19.07;10.63;;;14.80;97.30;;;;;;5062310;28;20194;-87
2021/08/06 04:53:51;;;;;;;21.57;10.67;;;14.80;97.30;;;;;;5069744;28;20155;-88
2021/08/06 04:56:16;;;;;;;22.00;11.50;;;14.90;97.30;;;;;;5088223;28;20233;-88
2021/08/06 04:58:42;;;;;;;22.77;10.37;;;14.90;97.30;;;;;;5055986;28;20179;-88
2021/08/06 05:01:07;;;;;;;18.30;10.03;;;14.90;97.30;;;;;;5054757;28;20221;-88
2021/08/06 05:03:33;;;;;;;22.23;9.27;;;14.90;97.30;;;;;;5054829;28;20170;-87
2021/08/06 05:06:02;;;;;;;21.67;11.20;;;14.80;97.30;;;;;;5055256;28;20182;-88
2021/08/06 05:08:28;;;;;;;31.70;12.23;;;14.80;97.30;;;;;;5055116;28;20205;-87
2021/08/06 05:10:53;;;;;;;20.00;11.70;;;14.70;97.30;;;;;;5055485;28;20430;-88
2021/08/06 05:13:19;;;;;;;22.37;11.77;;;14.70;97.30;;;;;;5054845;28;20204;-88
2021/08/06 05:15:44;;;;;;;25.10;12.07;;;14.80;97.30;;;;;;5055203;28;20175;-88
2021/08/06 05:18:10;;;;;;;28.80;12.63;;;14.80;97.30;;;;;;5035560;28;20781;-88
2021/08/06 05:20:35;;;;;;;26.67;13.27;;;14.90;97.30;;;;;;5034900;28;20211;-89
2021/08/06 05:23:01;;;;;;;36.60;12.43;;;15.00;97.30;;;;;;5035608;28;20262;-88
2021/08/06 05:25:27;;;;;;;33.33;14.70;;;15.10;97.30;;;;;;5036800;28;20665;-88
2021/08/06 05:27:52;;;;;;;34.30;13.23;;;15.20;97.30;;;;;;5054904;28;20189;-88
2021/08/06 05:30:22;;;;;;;38.03;15.23;;;15.30;97.30;;;;;;5037364;28;20203;-88
2021/08/06 05:32:49;;;;;;;29.73;14.23;;;15.30;97.30;;;;;;5036676;28;20180;-88
2021/08/06 05:35:14;;;;;;;26.40;13.53;;;15.40;97.30;;;;;;5035718;28;20741;-88
2021/08/06 05:37:40;;;;;;;33.27;14.83;;;15.40;97.30;;;;;;5035885;28;20437;-88
2021/08/06 05:40:06;;;;;;;31.73;13.97;;;15.50;97.30;;;;;;5035240;28;20211;-88
2021/08/06 05:42:32;;;;;;;32.47;13.80;;;15.50;97.30;;;;;;5035318;28;20422;-87
2021/08/06 05:44:58;;;;;;;38.83;17.07;;;15.60;97.30;;;;;;5035014;28;20464;-88
2021/08/06 05:47:23;;;;;;;42.73;17.83;;;15.60;97.30;;;;;;5034611;28;20179;-88
2021/08/06 05:49:49;;;;;;;38.90;16.80;;;15.70;97.30;;;;;;5031006;28;20224;-88
2021/08/06 05:52:14;;;;;;;38.27;18.53;;;15.70;97.30;;;;;;5041350;28;20187;-88
2021/08/06 05:54:40;;;;;;;48.80;18.90;;;15.60;97.30;;;;;;5051679;28;20215;-88
2021/08/06 05:57:05;;;;;;;43.77;17.47;;;15.60;97.30;;;;;;5051239;28;20183;-88
2021/08/06 05:59:31;;;;;;;48.40;19.10;;;15.60;97.30;;;;;;5052482;28;20277;-88
2021/08/06 06:01:56;;;;;;;43.53;18.80;;;15.60;97.30;;;;;;5052670;28;20207;-88
2021/08/06 06:04:22;;;;;;;32.37;14.87;;;15.60;97.30;;;;;;5055985;28;20181;-88
2021/08/06 06:06:47;;;;;;;25.13;13.07;;;15.60;97.30;;;;;;5033160;28;20204;-89
2021/08/06 06:09:13;;;;;;;24.80;13.67;;;15.60;97.30;;;;;;5032500;28;20197;-88
2021/08/06 06:11:39;;;;;;;26.37;12.57;;;15.70;97.30;;;;;;5033281;28;20229;-88
2021/08/06 06:14:04;;;;;;;21.73;11.73;;;15.70;97.30;;;;;;5031548;28;20192;-88
2021/08/06 06:16:30;;;;;;;21.70;11.40;;;15.80;97.30;;;;;;5039394;28;20180;-89
2021/08/06 06:18:56;;;;;;;29.20;13.27;;;15.90;97.30;;;;;;5051598;28;20180;-88
2021/08/06 06:21:21;;;;;;;21.50;12.10;;;16.00;97.30;;;;;;5052115;28;20208;-88
2021/08/06 06:23:47;;;;;;;25.37;13.10;;;16.00;97.30;;;;;;5035018;28;20243;-87
2021/08/06 06:26:12;;;;;;;32.10;14.57;;;16.00;97.30;;;;;;5036134;28;20188;-88
2021/08/06 06:28:38;;;;;;;29.10;14.53;;;15.90;97.30;;;;;;5034812;28;20184;-88
2021/08/06 06:31:03;;;;;;;25.33;13.57;;;15.80;97.30;;;;;;5035461;28;20200;-89
2021/08/06 06:33:29;;;;;;;28.50;14.70;;;15.90;97.30;;;;;;5036075;28;20208;-88
2021/08/06 06:35:55;;;;;;;26.10;14.47;;;15.90;97.30;;;;;;5036678;28;20259;-88
2021/08/06 06:38:20;;;;;;;29.97;13.43;;;16.00;97.30;;;;;;5036692;28;20639;-88
2021/08/06 06:40:47;;;;;;;26.90;13.77;;;16.00;97.30;;;;;;5036049;28;20211;-88
2021/08/06 06:43:12;;;;;;;28.83;14.20;;;16.00;97.30;;;;;;5036757;28;20558;-88
2021/08/06 06:45:38;;;;;;;30.37;15.27;;;16.00;97.30;;;;;;5035051;28;20419;-88
2021/08/06 06:48:07;;;;;;;29.93;15.70;;;16.10;97.30;;;;;;5040543;28;20184;-88
2021/08/06 06:50:33;;;;;;;30.37;16.03;;;16.10;97.30;;;;;;5034948;28;20258;-88
2021/08/06 06:52:59;;;;;;;28.23;14.70;;;16.20;97.30;;;;;;5035017;28;20791;-88
2021/08/06 06:55:24;;;;;;;29.43;15.30;;;16.10;97.30;;;;;;5033900;28;20595;-89
2021/08/06 06:57:58;;;;;;;30.27;15.47;;;16.10;97.30;;;;;;5034411;28;20184;-88
2021/08/06 07:00:31;;;;;;;38.53;18.83;;;16.30;97.30;;;;;;5034564;28;20679;-88
2021/08/06 07:02:57;;;;;;;30.30;17.40;;;16.40;97.30;;;;;;5034661;28;20473;-88
2021/08/06 07:05:23;;;;;;;30.63;17.03;;;16.50;97.30;;;;;;5034775;28;20419;-88
2021/08/06 07:07:49;;;;;;;29.00;15.70;;;16.60;97.30;;;;;;5034925;28;20835;-88
2021/08/06 07:10:15;;;;;;;33.70;16.53;;;16.70;97.30;;;;;;5036993;28;20275;-89
2021/08/06 07:12:42;;;;;;;31.07;17.43;;;16.80;97.30;;;;;;5036141;28;20271;-88
2021/08/06 07:15:09;;;;;;;32.93;17.50;;;16.90;97.30;;;;;;5035850;28;20442;-88
2021/08/06 07:17:37;;;;;;;28.80;15.57;;;17.00;97.30;;;;;;5045556;28;20750;-88
2021/08/06 07:20:04;;;;;;;27.30;15.63;;;17.10;97.30;;;;;;5035070;28;20435;-88
2021/08/06 07:22:29;;;;;;;30.43;16.50;;;17.20;97.30;;;;;;5034565;28;20510;-88
2021/08/06 07:24:55;;;;;;;39.60;20.60;;;17.20;97.30;;;;;;5034819;28;20569;-88
2021/08/06 07:27:22;;;;;;;27.63;15.43;;;17.40;97.30;;;;;;5034872;28;20742;-88
2021/08/06 07:29:47;;;;;;;24.20;15.20;;;17.50;97.30;;;;;;5035368;28;20188;-88
2021/08/06 07:32:13;;;;;;;29.13;16.93;;;17.60;97.30;;;;;;5032899;28;20506;-88
2021/08/06 07:34:39;;;;;;;28.10;17.43;;;17.70;97.30;;;;;;5033649;28;20697;-88
2021/08/06 07:37:04;;;;;;;29.93;17.50;;;17.80;97.30;;;;;;5034079;28;20188;-88
2021/08/06 07:39:30;;;;;;;29.20;18.90;;;17.90;97.30;;;;;;5034022;28;20292;-88
2021/08/06 07:41:55;;;;;;;34.03;22.20;;;18.10;97.30;;;;;;5033592;28;20215;-88
2021/08/06 07:44:21;;;;;;;28.20;17.47;;;18.20;97.30;;;;;;5036111;28;20176;-88
2021/08/06 07:46:47;;;;;;;21.60;14.80;;;18.30;97.30;;;;;;5035338;28;20206;-88
2021/08/06 07:49:12;;;;;;;24.37;13.77;;;18.40;97.30;;;;;;5039497;28;20212;-88
2021/08/06 07:51:38;;;;;;;20.87;12.87;;;18.50;97.30;;;;;;5038788;28;20211;-89
2021/08/06 07:54:05;;;;;;;40.07;29.60;;;18.60;97.30;;;;;;5038788;28;20172;-89
2021/08/06 07:56:30;;;;;;;40.87;25.37;;;18.70;97.30;;;;;;5037734;28;20176;-89
2021/08/06 07:58:56;;;;;;;33.23;19.67;;;18.80;97.30;;;;;;5037767;28;20411;-89
2021/08/06 08:01:21;;;;;;;20.83;14.13;;;18.90;97.30;;;;;;5037342;28;20207;-88
2021/08/06 08:03:47;;;;;;;15.30;9.10;;;19.00;97.30;;;;;;5037504;28;20176;-88
2021/08/06 08:06:13;;;;;;;18.90;11.60;;;19.10;97.30;;;;;;5038163;28;20190;-88
2021/08/06 08:08:41;;;;;;;19.03;10.10;;;19.10;97.30;;;;;;5051975;28;20179;-88
2021/08/06 08:11:07;;;;;;;16.90;10.00;;;19.20;97.30;;;;;;5054961;28;20540;-88
2021/08/06 08:13:33;;;;;;;11.50;7.23;;;19.40;97.30;;;;;;5056024;28;20457;-89
2021/08/06 08:15:59;;;;;;;11.23;7.20;;;19.50;97.30;;;;;;5056221;28;20445;-88
2021/08/06 08:18:25;;;;;;;14.70;7.87;;;19.50;97.30;;;;;;5056085;28;20634;-88
2021/08/06 08:20:51;;;;;;;9.73;6.80;;;19.50;97.30;;;;;;5055995;28;20492;-88
2021/08/06 08:23:17;;;;;;;10.07;6.10;;;19.60;97.30;;;;;;5057026;28;20428;-87
2021/08/06 08:25:43;;;;;;;10.30;5.87;;;19.60;97.30;;;;;;5057476;28;20178;-88
2021/08/06 08:28:09;;;;;;;10.00;6.27;;;19.60;97.30;;;;;;5057304;28;20414;-88
2021/08/06 08:30:35;;;;;;;7.67;5.90;;;19.60;97.30;;;;;;5057150;28;20556;-88
2021/08/06 08:33:00;;;;;;;8.13;5.40;;;19.70;97.30;;;;;;5057131;28;20188;-88
2021/08/06 08:35:26;;;;;;;9.60;6.07;;;19.80;97.30;;;;;;5056658;28;20187;-88
2021/08/06 08:37:51;;;;;;;10.00;6.40;;;19.90;97.30;;;;;;5058977;28;20183;-88
2021/08/06 08:40:17;;;;;;;9.87;5.13;;;20.00;97.30;;;;;;5054098;28;20200;-88
2021/08/06 08:42:43;;;;;;;7.50;5.83;;;20.10;97.30;;;;;;5036236;28;20203;-89
2021/08/06 08:45:10;;;;;;;6.97;5.07;;;20.30;97.30;;;;;;5036093;28;20188;-88
2021/08/06 08:47:43;;;;;;;11.73;5.27;;;20.50;97.30;;;;;;5037048;28;20433;-87
2021/08/06 08:50:09;;;;;;;6.47;5.00;;;20.60;97.30;;;;;;5034854;28;20478;-88
2021/08/06 08:52:35;;;;;;;15.43;5.07;;;20.70;97.30;;;;;;5052780;28;20417;-88
2021/08/06 08:55:01;;;;;;;7.80;5.13;;;20.80;97.30;;;;;;5035179;28;20422;-88
2021/08/06 08:57:27;;;;;;;7.00;4.53;;;20.80;97.30;;;;;;5035177;28;20673;-88
2021/08/06 08:59:55;;;;;;;8.10;4.97;;;20.90;97.30;;;;;;5035197;28;20434;-88
2021/08/06 09:02:21;;;;;;;6.10;5.13;;;21.00;97.30;;;;;;5052707;28;20176;-88
2021/08/06 09:04:48;;;;;;;8.27;5.07;;;21.00;97.30;;;;;;5035845;28;20693;-88
2021/08/06 09:07:29;;;;;;;7.83;5.20;;;21.10;97.30;;;;;;5036747;28;20463;-89
2021/08/06 09:10:18;;;;;;;7.37;4.97;;;21.20;97.30;;;;;;5036755;28;20816;-87
2021/08/06 09:12:59;;;;;;;7.30;4.80;;;21.30;97.30;;;;;;5036256;28;20414;-88
2021/08/06 09:15:44;;;;;;;7.37;4.97;;;21.30;97.30;;;;;;5036320;28;20880;-87
2021/08/06 09:18:33;;;;;;;7.50;4.00;;;21.50;97.30;;;;;;5055189;28;20923;-88
2021/08/06 09:21:17;;;;;;;6.33;4.60;;;21.60;97.30;;;;;;5055978;28;20548;-87
2021/08/06 09:23:57;;;;;;;7.07;4.70;;;21.80;97.30;;;;;;5056212;28;20444;-88
2021/08/06 09:26:40;;;;;;;5.93;4.13;;;22.00;97.30;;;;;;5055622;28;20516;-88
2021/08/06 09:29:21;;;;;;;7.77;5.33;;;22.00;97.30;;;;;;5072890;28;20508;-88
2021/08/06 09:31:59;;;;;;;9.70;6.03;;;21.90;97.30;;;;;;5054228;28;20977;-88
2021/08/06 09:34:36;;;;;;;7.37;4.90;;;21.90;97.30;;;;;;5053778;28;20708;-88
2021/08/06 09:37:07;;;;;;;8.63;4.83;;;21.90;97.30;;;;;;5054627;28;20424;-87
2021/08/06 09:39:44;;;;;;;6.60;4.77;;;21.80;97.30;;;;;;5054501;28;20491;-88
2021/08/06 09:42:20;;;;;;;8.40;5.23;;;21.90;97.30;;;;;;5054424;28;20532;-88
2021/08/06 09:45:10;;;;;;;6.13;5.13;;;21.90;97.30;;;;;;5051145;28;20464;-87
2021/08/06 09:47:39;;;;;;;7.80;5.50;;;21.90;97.30;;;;;;5042244;28;20502;-88
2021/08/06 09:50:08;;;;;;;12.90;5.77;;;22.00;97.30;;;;;;5045192;28;20457;-87
2021/08/06 09:52:37;;;;;;;9.23;5.87;;;22.00;97.30;;;;;;5045790;28;20433;-88
2021/08/06 09:55:05;;;;;;;7.90;5.43;;;22.20;97.30;;;;;;5044120;28;20433;-87
2021/08/06 09:57:31;;;;;;;6.50;5.60;;;22.30;97.30;;;;;;5049716;28;20758;-87
2021/08/06 10:00:01;;;;;;;8.53;5.40;;;22.50;97.30;;;;;;5046752;28;20426;-88
2021/08/06 10:02:30;;;;;;;8.00;4.63;;;22.60;97.30;;;;;;5049631;28;20546;-88
2021/08/06 10:05:04;;;;;;;6.87;4.67;;;22.80;97.30;;;;;;5049144;28;20453;-88
2021/08/06 10:07:40;;;;;;;8.30;5.50;;;22.90;97.30;;;;;;5046933;28;20413;-88
2021/08/06 10:10:09;;;;;;;6.13;5.50;;;23.00;97.30;;;;;;5045244;28;20434;-88
2021/08/06 10:12:35;;;;;;;7.73;4.90;;;23.10;97.30;;;;;;5049080;28;20470;-88
2021/08/06 10:15:01;;;;;;;8.13;4.90;;;23.20;97.20;;;;;;5045899;28;20406;-88
2021/08/06 10:17:32;;;;;;;5.93;4.47;;;23.20;97.30;;;;;;5054639;28;20264;-86
2021/08/06 10:20:00;;;;;;;6.40;4.97;;;23.20;97.30;;;;;;5066373;28;20618;-88
2021/08/06 10:22:26;;;;;;;7.27;5.53;;;23.20;96.20;;;;;;5044639;28;20432;-87
2021/08/06 10:24:54;;;;;;;5.17;4.77;;;23.10;96.10;;;;;;5049207;28;20426;-88
2021/08/06 10:27:31;;;;;;;5.57;4.30;;;23.10;97.30;;;;;;5049815;28;20179;-88
2021/08/06 10:30:07;;;;;;;7.53;4.57;;;23.00;97.30;;;;;;5064135;28;20471;-87
2021/08/06 10:32:34;;;;;;;5.97;3.90;;;23.20;97.30;;;;;;5045931;28;20419;-88
2021/08/06 10:35:03;;;;;;;5.77;5.00;;;23.30;97.30;;;;;;5069314;28;20930;-88
2021/08/06 10:37:54;;;;;;;5.07;4.20;;;23.50;97.30;;;;;;5062268;28;20405;-88
2021/08/06 10:40:32;;;;;;;10.10;4.70;;;23.70;97.30;;;;;;5052173;28;20446;-88
2021/08/06 10:43:18;;;;;;;4.83;4.50;;;23.90;96.70;;;;;;5064369;28;20919;-87
2021/08/06 10:45:51;;;;;;;6.13;4.60;;;24.10;97.30;;;;;;5030753;28;20446;-88
2021/08/06 10:48:38;;;;;;;6.47;3.87;;;24.30;93.60;;;;;;5068825;28;21486;-89
2021/08/06 10:51:15;;;;;;;5.50;4.13;;;24.50;96.10;;;;;;5062697;28;20480;-89
2021/08/06 10:53:43;;;;;;;4.47;3.80;;;24.50;93.20;;;;;;5081275;23;20434;-87
2021/08/06 10:56:18;;;;;;;6.20;3.80;;;24.50;91.00;;;;;;5088588;28;20409;-87
2021/08/06 10:58:52;;;;;;;5.60;3.60;;;24.40;92.20;;;;;;5083128;28;21127;-87
2021/08/06 11:01:33;;;;;;;5.30;3.00;;;24.30;93.40;;;;;;5105906;28;20988;-88
2021/08/06 11:04:06;;;;;;;4.50;3.00;;;24.30;93.00;;;;;;5073977;28;20416;-87
2021/08/06 11:06:47;;;;;;;4.10;2.83;;;24.40;93.10;;;;;;5055609;28;20437;-87
2021/08/06 11:09:25;;;;;;;3.43;2.90;;;24.40;90.80;;;;;;5060509;28;20490;-87
2021/08/06 11:12:02;;;;;;;4.03;3.07;;;24.40;90.90;;;;;;5093032;22;20524;-86
2021/08/06 11:14:28;;;;;;;4.70;3.47;;;24.60;92.00;;;;;;5085761;28;20473;-81
2021/08/06 11:17:16;;;;;;;3.60;3.17;;;24.60;91.30;;;;;;5110669;28;20503;-81
2021/08/06 11:19:54;;;;;;;4.37;2.87;;;24.60;92.20;;;;;;5101868;28;20169;-81
2021/08/06 11:22:27;;;;;;;2.70;2.50;;;24.70;93.30;;;;;;5099925;28;20447;-81
2021/08/06 11:25:11;;;;;;;3.90;3.00;;;24.60;92.50;;;;;;5084228;28;20416;-81
2021/08/06 11:27:49;;;;;;;2.40;2.20;;;24.50;91.80;;;;;;5081447;28;20420;-81
2021/08/06 11:30:25;;;;;;;2.70;2.50;;;24.50;89.80;;;;;;5084683;28;20421;-81
2021/08/06 11:32:53;;;;;;;2.60;2.20;;;24.50;89.50;;;;;;5103943;28;20472;-82
2021/08/06 11:35:24;;;;;;;2.80;2.37;;;24.40;90.30;;;;;;5101702;28;20412;-81
2021/08/06 11:37:58;;;;;;;2.87;2.73;;;24.40;90.60;;;;;;5108929;28;20825;-81
2021/08/06 11:40:32;;;;;;;3.30;3.10;;;24.30;92.40;;;;;;5094381;28;20447;-80
2021/08/06 11:43:08;;;;;;;4.83;2.70;;;24.30;91.80;;;;;;5085601;28;20421;-81
2021/08/06 11:45:33;;;;;;;4.33;2.83;;;24.20;92.90;;;;;;5119600;28;20451;-81
2021/08/06 11:48:01;;;;;;;5.67;3.20;;;24.20;92.80;;;;;;5093028;28;20427;-81
2021/08/06 11:50:43;;;;;;;5.30;2.70;;;24.00;93.30;;;;;;5097124;28;20273;-83
2021/08/06 11:53:12;;;;;;;2.70;2.50;;;23.90;94.20;;;;;;5080146;28;20424;-83
2021/08/06 11:55:37;;;;;;;2.50;2.30;;;23.80;93.00;;;;;;5085079;28;20433;-82
2021/08/06 11:58:03;;;;;;;5.30;1.93;;;23.70;92.30;;;;;;5087075;28;20804;-83
2021/08/06 12:00:31;;;;;;;5.73;2.30;;;23.60;91.10;;;;;;5103541;28;20198;-82
2021/08/06 12:03:11;;;;;;;2.63;2.50;;;23.40;91.40;;;;;;5093426;28;20240;-83
2021/08/06 12:05:45;;;;;;;5.37;2.30;;;23.30;92.40;;;;;;5089440;28;20430;-82
2021/08/06 12:08:34;;;;;;;3.40;2.40;;;23.20;92.20;;;;;;5106631;28;20458;-80
2021/08/06 12:11:05;;;;;;;4.23;2.43;;;23.10;92.40;;;;;;5095802;28;20458;-80
2021/08/06 12:13:35;;;;;;;2.70;2.27;;;23.00;93.30;;;;;;5102314;28;20427;-83
2021/08/06 12:16:12;;;;;;;6.80;3.13;;;22.90;93.80;;;;;;5091491;28;20511;-84
2021/08/06 12:18:45;;;;;;;3.57;3.00;;;22.80;94.80;;;;;;5087913;28;20427;-83
2021/08/06 12:21:27;;;;;;;6.27;3.00;;;22.50;95.50;;;;;;5088738;28;20518;-84
2021/08/06 12:24:02;;;;;;;4.07;2.40;;;22.30;95.60;;;;;;5084779;28;21107;-81
2021/08/06 12:26:34;;;;;;;3.53;1.90;;;22.10;95.90;;;;;;5095535;28;20412;-81
2021/08/06 12:29:13;;;;;;;3.33;2.20;;;21.80;93.70;;;;;;5105037;28;20435;-82
2021/08/06 12:31:47;;;;;;;2.73;2.17;;;21.40;94.30;;;;;;5087727;28;20614;-82
2021/08/06 12:34:13;;;;;;;1.60;1.50;;;21.20;95.90;;;;;;5113465;28;20433;-82
2021/08/06 12:36:52;;;;;;;2.90;1.60;;;21.00;95.80;;;;;;5087189;28;20424;-79
2021/08/06 12:39:18;;;;;;;2.87;1.70;;;20.80;96.40;;;;;;5087950;28;20424;-82
2021/08/06 12:41:45;;;;;;;2.17;1.67;;;20.70;97.00;;;;;;5088685;28;20459;-80
2021/08/06 12:44:19;;;;;;;3.00;1.80;;;20.70;97.30;;;;;;5085710;28;20267;-81